sensor_id;sensor_type;location;lat;lon;timestamp;pressure;altitude;pressure_sealevel;temperature;humidity
45621;BME280;31345;51.522;10.702;2023-07-08T00:00:37;99524.84;;;14.06;95.29
45621;BME280;31345;51.522;10.702;2023-07-08T00:03:09;99518.94;;;13.91;94.84
45621;BME280;31345;51.522;10.702;2023-07-08T00:05:37;99518.81;;;13.68;96.88
45621;BME280;31345;51.522;10.702;2023-07-08T00:08:05;99519.66;;;13.55;98.25
45621;BME280;31345;51.522;10.702;2023-07-08T00:10:37;99512.00;;;13.65;97.93
45621;BME280;31345;51.522;10.702;2023-07-08T00:13:05;99516.25;;;13.79;97.29
45621;BME280;31345;51.522;10.702;2023-07-08T00:15:39;99520.94;;;13.87;96.81
45621;BME280;31345;51.522;10.702;2023-07-08T00:18:11;99508.91;;;13.71;96.91
45621;BME280;31345;51.522;10.702;2023-07-08T00:20:46;99503.16;;;13.66;96.71
45621;BME280;31345;51.522;10.702;2023-07-08T00:23:19;99507.41;;;13.56;97.49
45621;BME280;31345;51.522;10.702;2023-07-08T00:25:48;99505.59;;;13.43;99.21
45621;BME280;31345;51.522;10.702;2023-07-08T00:30:54;99513.53;;;13.30;100.00
45621;BME280;31345;51.522;10.702;2023-07-08T00:33:23;99511.31;;;13.37;99.11
45621;BME280;31345;51.522;10.702;2023-07-08T00:35:51;99510.34;;;13.38;98.82
45621;BME280;31345;51.522;10.702;2023-07-08T00:38:23;99506.06;;;13.24;99.84
45621;BME280;31345;51.522;10.702;2023-07-08T00:40:58;99510.81;;;13.19;100.00
45621;BME280;31345;51.522;10.702;2023-07-08T00:43:34;99506.91;;;13.24;99.37
45621;BME280;31345;51.522;10.702;2023-07-08T00:46:24;99504.91;;;13.15;99.62
45621;BME280;31345;51.522;10.702;2023-07-08T00:48:59;99507.78;;;13.12;99.48
45621;BME280;31345;51.522;10.702;2023-07-08T00:51:33;99511.13;;;13.01;100.00
45621;BME280;31345;51.522;10.702;2023-07-08T00:54:00;99508.00;;;12.96;100.00
45621;BME280;31345;51.522;10.702;2023-07-08T00:56:30;99499.16;;;12.97;100.00
45621;BME280;31345;51.522;10.702;2023-07-08T00:59:01;99498.75;;;13.03;100.00
45621;BME280;31345;51.522;10.702;2023-07-08T01:01:35;99504.63;;;13.07;100.00
45621;BME280;31345;51.522;10.702;2023-07-08T01:04:08;99498.88;;;13.02;100.00
45621;BME280;31345;51.522;10.702;2023-07-08T01:06:40;99499.59;;;13.04;100.00
45621;BME280;31345;51.522;10.702;2023-07-08T01:09:11;99497.59;;;12.94;100.00
45621;BME280;31345;51.522;10.702;2023-07-08T01:11:45;99496.97;;;13.04;100.00
45621;BME280;31345;51.522;10.702;2023-07-08T01:14:17;99497.91;;;13.16;100.00
45621;BME280;31345;51.522;10.702;2023-07-08T01:16:48;99495.88;;;13.19;99.59
45621;BME280;31345;51.522;10.702;2023-07-08T01:19:22;99494.75;;;13.10;100.00
45621;BME280;31345;51.522;10.702;2023-07-08T01:22:06;99501.13;;;13.19;99.78
45621;BME280;31345;51.522;10.702;2023-07-08T01:24:36;99495.81;;;13.08;99.85
45621;BME280;31345;51.522;10.702;2023-07-08T01:27:07;99491.63;;;12.92;100.00
45621;BME280;31345;51.522;10.702;2023-07-08T01:29:40;99489.63;;;12.83;100.00
45621;BME280;31345;51.522;10.702;2023-07-08T01:32:11;99478.63;;;12.91;100.00
45621;BME280;31345;51.522;10.702;2023-07-08T01:34:45;99483.88;;;12.91;100.00
45621;BME280;31345;51.522;10.702;2023-07-08T01:37:30;99472.97;;;12.84;100.00
45621;BME280;31345;51.522;10.702;2023-07-08T01:40:15;99477.97;;;13.00;100.00
45621;BME280;31345;51.522;10.702;2023-07-08T01:42:55;99476.50;;;13.09;100.00
45621;BME280;31345;51.522;10.702;2023-07-08T01:45:24;99479.44;;;12.91;100.00
45621;BME280;31345;51.522;10.702;2023-07-08T01:48:00;99476.19;;;12.88;100.00
45621;BME280;31345;51.522;10.702;2023-07-08T01:50:38;99473.38;;;12.65;100.00
45621;BME280;31345;51.522;10.702;2023-07-08T01:53:14;99468.53;;;12.84;100.00
45621;BME280;31345;51.522;10.702;2023-07-08T01:55:43;99470.09;;;12.87;100.00
45621;BME280;31345;51.522;10.702;2023-07-08T01:58:16;99473.06;;;12.82;100.00
45621;BME280;31345;51.522;10.702;2023-07-08T02:00:43;99467.50;;;12.61;100.00
45621;BME280;31345;51.522;10.702;2023-07-08T02:03:19;99463.72;;;12.52;100.00
45621;BME280;31345;51.522;10.702;2023-07-08T02:05:52;99466.44;;;12.64;100.00
45621;BME280;31345;51.522;10.702;2023-07-08T02:08:26;99466.75;;;12.72;100.00
45621;BME280;31345;51.522;10.702;2023-07-08T02:10:56;99465.09;;;12.58;100.00
45621;BME280;31345;51.522;10.702;2023-07-08T02:13:24;99464.97;;;12.46;100.00
45621;BME280;31345;51.522;10.702;2023-07-08T02:15:52;99472.84;;;12.46;100.00
45621;BME280;31345;51.522;10.702;2023-07-08T02:18:20;99457.97;;;12.47;100.00
45621;BME280;31345;51.522;10.702;2023-07-08T02:20:49;99464.44;;;12.41;100.00
45621;BME280;31345;51.522;10.702;2023-07-08T02:23:18;99451.44;;;12.40;100.00
45621;BME280;31345;51.522;10.702;2023-07-08T02:25:51;99452.28;;;12.27;100.00
45621;BME280;31345;51.522;10.702;2023-07-08T02:28:19;99463.38;;;12.31;100.00
45621;BME280;31345;51.522;10.702;2023-07-08T02:30:47;99462.03;;;12.38;100.00
45621;BME280;31345;51.522;10.702;2023-07-08T02:33:15;99453.44;;;12.36;100.00
45621;BME280;31345;51.522;10.702;2023-07-08T02:35:43;99461.00;;;12.28;100.00
45621;BME280;31345;51.522;10.702;2023-07-08T02:38:17;99458.25;;;12.16;100.00
45621;BME280;31345;51.522;10.702;2023-07-08T02:40:44;99462.88;;;12.26;100.00
45621;BME280;31345;51.522;10.702;2023-07-08T02:43:18;99456.38;;;12.31;100.00
45621;BME280;31345;51.522;10.702;2023-07-08T02:45:49;99459.00;;;12.31;100.00
45621;BME280;31345;51.522;10.702;2023-07-08T02:48:21;99459.09;;;12.30;100.00
45621;BME280;31345;51.522;10.702;2023-07-08T02:50:49;99464.13;;;12.33;100.00
45621;BME280;31345;51.522;10.702;2023-07-08T02:53:16;99461.09;;;12.39;100.00
45621;BME280;31345;51.522;10.702;2023-07-08T02:55:44;99460.91;;;12.29;100.00
45621;BME280;31345;51.522;10.702;2023-07-08T02:58:18;99456.16;;;12.21;100.00
45621;BME280;31345;51.522;10.702;2023-07-08T03:00:45;99459.25;;;12.01;100.00
45621;BME280;31345;51.522;10.702;2023-07-08T03:03:18;99458.63;;;12.10;100.00
45621;BME280;31345;51.522;10.702;2023-07-08T03:05:53;99462.50;;;12.04;100.00
45621;BME280;31345;51.522;10.702;2023-07-08T03:08:21;99461.59;;;12.05;100.00
45621;BME280;31345;51.522;10.702;2023-07-08T03:10:54;99455.88;;;11.99;100.00
45621;BME280;31345;51.522;10.702;2023-07-08T03:13:24;99456.75;;;11.99;100.00
45621;BME280;31345;51.522;10.702;2023-07-08T03:15:57;99453.06;;;12.02;100.00
45621;BME280;31345;51.522;10.702;2023-07-08T03:18:31;99455.78;;;12.00;100.00
45621;BME280;31345;51.522;10.702;2023-07-08T03:21:05;99461.63;;;11.91;100.00
45621;BME280;31345;51.522;10.702;2023-07-08T03:23:37;99458.41;;;12.00;100.00
45621;BME280;31345;51.522;10.702;2023-07-08T03:26:05;99470.06;;;12.09;100.00
45621;BME280;31345;51.522;10.702;2023-07-08T03:28:39;99471.41;;;12.02;100.00
45621;BME280;31345;51.522;10.702;2023-07-08T03:31:12;99465.97;;;12.05;100.00
45621;BME280;31345;51.522;10.702;2023-07-08T03:33:45;99465.31;;;12.01;100.00
45621;BME280;31345;51.522;10.702;2023-07-08T03:36:14;99463.56;;;12.02;100.00
45621;BME280;31345;51.522;10.702;2023-07-08T03:38:49;99458.63;;;12.10;100.00
45621;BME280;31345;51.522;10.702;2023-07-08T03:41:17;99458.84;;;12.07;100.00
45621;BME280;31345;51.522;10.702;2023-07-08T03:43:46;99464.31;;;12.04;100.00
45621;BME280;31345;51.522;10.702;2023-07-08T03:46:15;99473.09;;;11.75;100.00
45621;BME280;31345;51.522;10.702;2023-07-08T03:48:42;99474.03;;;11.74;100.00
45621;BME280;31345;51.522;10.702;2023-07-08T03:51:20;99473.84;;;11.90;100.00
45621;BME280;31345;51.522;10.702;2023-07-08T03:53:55;99469.22;;;11.95;100.00
45621;BME280;31345;51.522;10.702;2023-07-08T03:56:23;99468.09;;;11.85;100.00
45621;BME280;31345;51.522;10.702;2023-07-08T03:58:52;99465.44;;;12.00;100.00
45621;BME280;31345;51.522;10.702;2023-07-08T04:01:23;99470.09;;;12.22;100.00
45621;BME280;31345;51.522;10.702;2023-07-08T04:03:53;99467.16;;;12.27;100.00
45621;BME280;31345;51.522;10.702;2023-07-08T04:06:22;99473.16;;;12.29;100.00
45621;BME280;31345;51.522;10.702;2023-07-08T04:08:50;99467.44;;;12.09;100.00
45621;BME280;31345;51.522;10.702;2023-07-08T04:11:20;99472.75;;;11.94;100.00
45621;BME280;31345;51.522;10.702;2023-07-08T04:13:48;99466.41;;;12.12;100.00
45621;BME280;31345;51.522;10.702;2023-07-08T04:16:20;99470.94;;;12.36;100.00
45621;BME280;31345;51.522;10.702;2023-07-08T04:18:48;99473.38;;;12.39;100.00
45621;BME280;31345;51.522;10.702;2023-07-08T04:21:22;99476.50;;;12.31;100.00
45621;BME280;31345;51.522;10.702;2023-07-08T04:23:51;99474.00;;;12.42;100.00
45621;BME280;31345;51.522;10.702;2023-07-08T04:26:23;99475.56;;;12.45;100.00
45621;BME280;31345;51.522;10.702;2023-07-08T04:28:53;99480.94;;;12.43;100.00
45621;BME280;31345;51.522;10.702;2023-07-08T04:31:22;99476.13;;;12.50;100.00
45621;BME280;31345;51.522;10.702;2023-07-08T04:33:54;99485.84;;;12.48;100.00
45621;BME280;31345;51.522;10.702;2023-07-08T04:36:27;99485.97;;;12.59;100.00
45621;BME280;31345;51.522;10.702;2023-07-08T04:38:59;99483.75;;;12.66;100.00
45621;BME280;31345;51.522;10.702;2023-07-08T04:41:27;99488.69;;;12.71;100.00
45621;BME280;31345;51.522;10.702;2023-07-08T04:43:59;99495.94;;;12.93;100.00
45621;BME280;31345;51.522;10.702;2023-07-08T04:46:35;99509.25;;;13.16;100.00
45621;BME280;31345;51.522;10.702;2023-07-08T04:49:09;99498.66;;;13.55;100.00
45621;BME280;31345;51.522;10.702;2023-07-08T04:51:38;99497.81;;;13.92;99.71
45621;BME280;31345;51.522;10.702;2023-07-08T04:54:10;99494.47;;;14.37;97.94
45621;BME280;31345;51.522;10.702;2023-07-08T04:56:39;99491.06;;;14.83;98.40
45621;BME280;31345;51.522;10.702;2023-07-08T04:59:15;99491.09;;;15.28;95.18
45621;BME280;31345;51.522;10.702;2023-07-08T05:01:44;99481.81;;;15.57;94.37
45621;BME280;31345;51.522;10.702;2023-07-08T05:04:18;99475.81;;;15.66;94.46
45621;BME280;31345;51.522;10.702;2023-07-08T05:06:51;99486.06;;;15.81;97.27
45621;BME280;31345;51.522;10.702;2023-07-08T05:09:24;99483.66;;;16.11;93.06
45621;BME280;31345;51.522;10.702;2023-07-08T05:11:52;99485.03;;;16.26;91.72
45621;BME280;31345;51.522;10.702;2023-07-08T05:14:20;99483.09;;;16.50;91.78
45621;BME280;31345;51.522;10.702;2023-07-08T05:16:56;99493.72;;;16.59;96.19
45621;BME280;31345;51.522;10.702;2023-07-08T05:19:24;99480.63;;;16.79;90.80
45621;BME280;31345;51.522;10.702;2023-07-08T05:21:56;99485.81;;;16.91;93.83
45621;BME280;31345;51.522;10.702;2023-07-08T05:24:24;99485.09;;;17.20;92.06
45621;BME280;31345;51.522;10.702;2023-07-08T05:26:51;99485.72;;;17.33;88.55
45621;BME280;31345;51.522;10.702;2023-07-08T05:29:19;99478.63;;;17.44;91.09
45621;BME280;31345;51.522;10.702;2023-07-08T05:31:51;99478.00;;;17.61;89.96
45621;BME280;31345;51.522;10.702;2023-07-08T05:34:25;99473.84;;;17.69;89.41
45621;BME280;31345;51.522;10.702;2023-07-08T05:36:53;99475.38;;;17.91;92.32
45621;BME280;31345;51.522;10.702;2023-07-08T05:39:26;99467.69;;;18.08;85.79
45621;BME280;31345;51.522;10.702;2023-07-08T05:41:58;99468.09;;;18.33;90.27
45621;BME280;31345;51.522;10.702;2023-07-08T05:44:31;99466.66;;;18.58;89.75
45621;BME280;31345;51.522;10.702;2023-07-08T05:46:58;99459.19;;;18.82;89.08
45621;BME280;31345;51.522;10.702;2023-07-08T05:49:27;99464.13;;;19.04;89.76
45621;BME280;31345;51.522;10.702;2023-07-08T05:52:00;99462.34;;;19.23;89.21
45621;BME280;31345;51.522;10.702;2023-07-08T05:54:37;99463.75;;;19.46;89.46
45621;BME280;31345;51.522;10.702;2023-07-08T05:57:05;99462.88;;;19.73;91.11
45621;BME280;31345;51.522;10.702;2023-07-08T05:59:34;99461.59;;;19.96;89.22
45621;BME280;31345;51.522;10.702;2023-07-08T06:02:03;99461.25;;;20.17;89.67
45621;BME280;31345;51.522;10.702;2023-07-08T06:04:37;99460.91;;;20.38;91.74
45621;BME280;31345;51.522;10.702;2023-07-08T06:07:04;99450.38;;;20.55;87.32
45621;BME280;31345;51.522;10.702;2023-07-08T06:09:37;99451.34;;;20.72;87.51
45621;BME280;31345;51.522;10.702;2023-07-08T06:12:05;99459.88;;;20.92;87.01
45621;BME280;31345;51.522;10.702;2023-07-08T06:14:37;99457.09;;;21.02;84.82
45621;BME280;31345;51.522;10.702;2023-07-08T06:17:11;99458.19;;;21.26;81.19
45621;BME280;31345;51.522;10.702;2023-07-08T06:19:39;99454.47;;;21.54;78.02
45621;BME280;31345;51.522;10.702;2023-07-08T06:22:12;99458.31;;;21.76;76.23
45621;BME280;31345;51.522;10.702;2023-07-08T06:24:40;99452.84;;;22.03;73.33
45621;BME280;31345;51.522;10.702;2023-07-08T06:27:07;99459.16;;;22.27;71.87
45621;BME280;31345;51.522;10.702;2023-07-08T06:29:35;99454.34;;;22.47;68.41
45621;BME280;31345;51.522;10.702;2023-07-08T06:32:03;99453.91;;;22.67;67.24
45621;BME280;31345;51.522;10.702;2023-07-08T06:34:30;99455.72;;;22.83;67.99
45621;BME280;31345;51.522;10.702;2023-07-08T06:37:05;99448.19;;;22.86;64.50
45621;BME280;31345;51.522;10.702;2023-07-08T06:39:33;99446.84;;;22.90;65.47
45621;BME280;31345;51.522;10.702;2023-07-08T06:42:06;99454.22;;;23.20;67.97
45621;BME280;31345;51.522;10.702;2023-07-08T06:44:33;99446.38;;;23.19;63.43
45621;BME280;31345;51.522;10.702;2023-07-08T06:47:06;99453.38;;;23.28;63.81
45621;BME280;31345;51.522;10.702;2023-07-08T06:49:33;99453.75;;;23.48;63.41
45621;BME280;31345;51.522;10.702;2023-07-08T06:52:01;99450.59;;;23.45;61.26
45621;BME280;31345;51.522;10.702;2023-07-08T06:54:30;99445.34;;;23.60;60.93
45621;BME280;31345;51.522;10.702;2023-07-08T06:57:02;99445.34;;;23.83;60.65
45621;BME280;31345;51.522;10.702;2023-07-08T06:59:30;99441.16;;;24.04;57.24
45621;BME280;31345;51.522;10.702;2023-07-08T07:01:57;99448.94;;;24.14;58.32
45621;BME280;31345;51.522;10.702;2023-07-08T07:04:25;99444.66;;;24.28;54.64
45621;BME280;31345;51.522;10.702;2023-07-08T07:06:57;99447.41;;;24.50;55.12
45621;BME280;31345;51.522;10.702;2023-07-08T07:09:31;99445.47;;;24.74;54.49
45621;BME280;31345;51.522;10.702;2023-07-08T07:12:05;99449.75;;;24.83;53.67
45621;BME280;31345;51.522;10.702;2023-07-08T07:14:38;99442.09;;;24.95;52.09
45621;BME280;31345;51.522;10.702;2023-07-08T07:17:10;99451.22;;;25.01;51.27
45621;BME280;31345;51.522;10.702;2023-07-08T07:19:43;99450.81;;;25.19;53.07
45621;BME280;31345;51.522;10.702;2023-07-08T07:22:20;99455.63;;;25.08;52.34
45621;BME280;31345;51.522;10.702;2023-07-08T07:25:45;99458.94;;;24.80;53.07
45621;BME280;31345;51.522;10.702;2023-07-08T07:28:18;99452.03;;;24.71;51.16
45621;BME280;31345;51.522;10.702;2023-07-08T07:30:56;99454.88;;;24.69;51.59
45621;BME280;31345;51.522;10.702;2023-07-08T07:33:30;99452.69;;;24.73;50.75
45621;BME280;31345;51.522;10.702;2023-07-08T07:36:02;99452.03;;;24.71;51.98
45621;BME280;31345;51.522;10.702;2023-07-08T07:38:32;99448.09;;;24.97;52.07
45621;BME280;31345;51.522;10.702;2023-07-08T07:41:07;99447.25;;;24.97;50.33
45621;BME280;31345;51.522;10.702;2023-07-08T07:43:41;99451.94;;;25.10;50.09
45621;BME280;31345;51.522;10.702;2023-07-08T07:46:14;99450.56;;;25.14;50.62
45621;BME280;31345;51.522;10.702;2023-07-08T07:48:41;99445.59;;;25.32;50.44
45621;BME280;31345;51.522;10.702;2023-07-08T07:51:14;99451.22;;;25.59;49.11
45621;BME280;31345;51.522;10.702;2023-07-08T07:53:46;99453.63;;;25.32;49.85
45621;BME280;31345;51.522;10.702;2023-07-08T07:56:20;99451.19;;;25.75;49.14
45621;BME280;31345;51.522;10.702;2023-07-08T07:58:53;99458.28;;;25.82;48.53
45621;BME280;31345;51.522;10.702;2023-07-08T08:01:25;99459.78;;;25.92;47.61
45621;BME280;31345;51.522;10.702;2023-07-08T08:03:58;99455.41;;;25.84;44.79
45621;BME280;31345;51.522;10.702;2023-07-08T08:06:30;99452.22;;;25.95;44.93
45621;BME280;31345;51.522;10.702;2023-07-08T08:09:03;99466.84;;;26.21;46.46
45621;BME280;31345;51.522;10.702;2023-07-08T08:11:32;99467.75;;;26.07;44.24
45621;BME280;31345;51.522;10.702;2023-07-08T08:14:05;99466.69;;;26.30;45.81
45621;BME280;31345;51.522;10.702;2023-07-08T08:16:37;99460.75;;;26.34;45.79
45621;BME280;31345;51.522;10.702;2023-07-08T08:19:10;99460.16;;;26.39;45.37
45621;BME280;31345;51.522;10.702;2023-07-08T08:21:42;99457.63;;;26.59;44.70
45621;BME280;31345;51.522;10.702;2023-07-08T08:24:14;99459.97;;;26.69;43.17
45621;BME280;31345;51.522;10.702;2023-07-08T08:26:48;99446.22;;;26.93;44.59
45621;BME280;31345;51.522;10.702;2023-07-08T08:29:21;99452.94;;;27.10;42.45
45621;BME280;31345;51.522;10.702;2023-07-08T08:31:54;99444.00;;;26.96;41.77
45621;BME280;31345;51.522;10.702;2023-07-08T08:34:26;99448.53;;;27.03;44.34
45621;BME280;31345;51.522;10.702;2023-07-08T08:36:59;99451.53;;;27.21;43.81
45621;BME280;31345;51.522;10.702;2023-07-08T08:39:31;99450.91;;;27.19;41.71
45621;BME280;31345;51.522;10.702;2023-07-08T08:42:00;99453.34;;;27.07;42.98
45621;BME280;31345;51.522;10.702;2023-07-08T08:44:35;99440.63;;;27.36;42.46
45621;BME280;31345;51.522;10.702;2023-07-08T08:47:15;99445.00;;;27.51;42.24
45621;BME280;31345;51.522;10.702;2023-07-08T08:49:48;99452.66;;;27.61;41.75
45621;BME280;31345;51.522;10.702;2023-07-08T08:52:25;99442.75;;;27.61;40.75
45621;BME280;31345;51.522;10.702;2023-07-08T08:54:53;99445.47;;;27.88;41.46
45621;BME280;31345;51.522;10.702;2023-07-08T08:57:33;99442.97;;;27.67;40.74
45621;BME280;31345;51.522;10.702;2023-07-08T09:00:10;99447.56;;;27.86;40.61
45621;BME280;31345;51.522;10.702;2023-07-08T09:02:51;99440.72;;;28.04;41.15
45621;BME280;31345;51.522;10.702;2023-07-08T09:05:25;99439.69;;;28.19;40.40
45621;BME280;31345;51.522;10.702;2023-07-08T09:08:04;99442.13;;;28.47;38.01
45621;BME280;31345;51.522;10.702;2023-07-08T09:10:43;99434.25;;;28.59;39.27
45621;BME280;31345;51.522;10.702;2023-07-08T09:13:18;99440.47;;;28.39;37.98
45621;BME280;31345;51.522;10.702;2023-07-08T09:16:00;99439.00;;;28.57;39.72
45621;BME280;31345;51.522;10.702;2023-07-08T09:18:37;99434.03;;;28.61;37.42
45621;BME280;31345;51.522;10.702;2023-07-08T09:24:02;99432.75;;;28.70;37.78
45621;BME280;31345;51.522;10.702;2023-07-08T09:26:36;99424.94;;;28.62;38.13
45621;BME280;31345;51.522;10.702;2023-07-08T09:29:10;99431.56;;;28.59;38.06
45621;BME280;31345;51.522;10.702;2023-07-08T09:31:39;99431.22;;;28.95;39.53
45621;BME280;31345;51.522;10.702;2023-07-08T09:34:15;99425.84;;;28.95;36.26
45621;BME280;31345;51.522;10.702;2023-07-08T09:36:49;99423.69;;;29.17;36.80
45621;BME280;31345;51.522;10.702;2023-07-08T09:39:22;99430.09;;;29.55;36.08
45621;BME280;31345;51.522;10.702;2023-07-08T09:41:54;99432.09;;;29.66;37.13
45621;BME280;31345;51.522;10.702;2023-07-08T09:44:26;99435.53;;;29.48;33.64
45621;BME280;31345;51.522;10.702;2023-07-08T09:47:01;99435.97;;;29.45;36.37
45621;BME280;31345;51.522;10.702;2023-07-08T09:49:35;99444.09;;;29.31;37.07
45621;BME280;31345;51.522;10.702;2023-07-08T09:52:04;99438.41;;;29.14;35.86
45621;BME280;31345;51.522;10.702;2023-07-08T09:54:37;99438.84;;;29.04;34.15
45621;BME280;31345;51.522;10.702;2023-07-08T09:57:12;99441.06;;;29.21;35.61
45621;BME280;31345;51.522;10.702;2023-07-08T09:59:55;99438.06;;;29.36;36.87
45621;BME280;31345;51.522;10.702;2023-07-08T10:02:32;99442.13;;;29.52;36.50
45621;BME280;31345;51.522;10.702;2023-07-08T10:05:12;99440.66;;;29.56;35.75
45621;BME280;31345;51.522;10.702;2023-07-08T10:07:46;99441.16;;;29.72;35.90
45621;BME280;31345;51.522;10.702;2023-07-08T10:10:17;99437.41;;;29.73;34.49
45621;BME280;31345;51.522;10.702;2023-07-08T10:12:56;99435.22;;;29.31;34.21
45621;BME280;31345;51.522;10.702;2023-07-08T10:15:32;99434.03;;;29.20;37.13
45621;BME280;31345;51.522;10.702;2023-07-08T10:18:13;99436.97;;;29.05;36.81
45621;BME280;31345;51.522;10.702;2023-07-08T10:20:54;99434.09;;;29.00;38.69
45621;BME280;31345;51.522;10.702;2023-07-08T10:23:34;99445.31;;;28.90;41.77
45621;BME280;31345;51.522;10.702;2023-07-08T10:26:10;99436.75;;;29.06;38.62
45621;BME280;31345;51.522;10.702;2023-07-08T10:28:53;99433.84;;;29.47;36.58
45621;BME280;31345;51.522;10.702;2023-07-08T10:31:33;99426.06;;;29.64;36.05
45621;BME280;31345;51.522;10.702;2023-07-08T10:34:17;99423.59;;;29.63;39.54
45621;BME280;31345;51.522;10.702;2023-07-08T10:36:50;99430.47;;;29.91;40.80
45621;BME280;31345;51.522;10.702;2023-07-08T10:39:44;99425.06;;;30.16;39.44
45621;BME280;31345;51.522;10.702;2023-07-08T10:42:27;99416.31;;;30.21;35.73
45621;BME280;31345;51.522;10.702;2023-07-08T10:45:08;99431.13;;;30.30;36.49
45621;BME280;31345;51.522;10.702;2023-07-08T10:47:50;99427.34;;;30.57;37.89
45621;BME280;31345;51.522;10.702;2023-07-08T10:50:35;99415.44;;;30.65;32.87
45621;BME280;31345;51.522;10.702;2023-07-08T10:53:21;99421.81;;;30.52;37.63
45621;BME280;31345;51.522;10.702;2023-07-08T10:55:59;99428.78;;;30.59;37.24
45621;BME280;31345;51.522;10.702;2023-07-08T10:58:47;99425.16;;;31.03;36.31
45621;BME280;31345;51.522;10.702;2023-07-08T11:01:31;99420.00;;;31.32;33.08
45621;BME280;31345;51.522;10.702;2023-07-08T11:04:22;99414.94;;;31.36;32.19
45621;BME280;31345;51.522;10.702;2023-07-08T11:06:57;99413.22;;;31.11;32.36
45621;BME280;31345;51.522;10.702;2023-07-08T11:09:37;99417.00;;;31.10;34.26
45621;BME280;31345;51.522;10.702;2023-07-08T11:12:22;99414.31;;;31.22;35.04
45621;BME280;31345;51.522;10.702;2023-07-08T11:15:05;99409.81;;;31.46;35.01
45621;BME280;31345;51.522;10.702;2023-07-08T11:17:44;99410.66;;;31.59;35.89
45621;BME280;31345;51.522;10.702;2023-07-08T11:20:18;99407.19;;;31.82;36.26
45621;BME280;31345;51.522;10.702;2023-07-08T11:22:50;99401.91;;;31.75;29.82
45621;BME280;31345;51.522;10.702;2023-07-08T11:25:27;99407.88;;;31.78;32.14
45621;BME280;31345;51.522;10.702;2023-07-08T11:27:56;99393.56;;;32.01;30.36
45621;BME280;31345;51.522;10.702;2023-07-08T11:30:32;99392.75;;;31.88;29.47
45621;BME280;31345;51.522;10.702;2023-07-08T11:33:11;99392.25;;;31.92;31.94
45621;BME280;31345;51.522;10.702;2023-07-08T11:35:44;99384.25;;;32.09;32.35
45621;BME280;31345;51.522;10.702;2023-07-08T11:38:20;99388.03;;;32.08;32.65
45621;BME280;31345;51.522;10.702;2023-07-08T11:40:56;99383.44;;;32.20;34.22
45621;BME280;31345;51.522;10.702;2023-07-08T11:43:37;99387.41;;;32.06;31.60
45621;BME280;31345;51.522;10.702;2023-07-08T11:46:14;99375.56;;;32.31;28.85
45621;BME280;31345;51.522;10.702;2023-07-08T11:48:48;99381.84;;;32.60;30.59
45621;BME280;31345;51.522;10.702;2023-07-08T11:51:25;99384.22;;;32.98;30.56
45621;BME280;31345;51.522;10.702;2023-07-08T11:54:00;99380.63;;;33.09;30.55
45621;BME280;31345;51.522;10.702;2023-07-08T11:56:47;99381.06;;;32.89;29.34
45621;BME280;31345;51.522;10.702;2023-07-08T11:59:20;99381.25;;;32.99;27.35
45621;BME280;31345;51.522;10.702;2023-07-08T12:01:54;99379.97;;;32.90;28.36
45621;BME280;31345;51.522;10.702;2023-07-08T12:04:30;99380.16;;;33.12;26.76
45621;BME280;31345;51.522;10.702;2023-07-08T12:07:10;99374.09;;;32.93;28.76
45621;BME280;31345;51.522;10.702;2023-07-08T12:09:48;99369.13;;;32.61;27.86
45621;BME280;31345;51.522;10.702;2023-07-08T12:12:21;99371.91;;;32.78;27.58
45621;BME280;31345;51.522;10.702;2023-07-08T12:15:04;99367.56;;;32.77;26.29
45621;BME280;31345;51.522;10.702;2023-07-08T12:17:33;99366.19;;;32.62;26.03
45621;BME280;31345;51.522;10.702;2023-07-08T12:20:16;99361.94;;;32.67;26.82
45621;BME280;31345;51.522;10.702;2023-07-08T12:22:50;99365.13;;;32.63;27.11
45621;BME280;31345;51.522;10.702;2023-07-08T12:25:21;99363.75;;;32.49;30.17
45621;BME280;31345;51.522;10.702;2023-07-08T12:27:49;99349.69;;;32.64;26.13
45621;BME280;31345;51.522;10.702;2023-07-08T12:30:22;99345.84;;;32.60;28.20
45621;BME280;31345;51.522;10.702;2023-07-08T12:32:51;99348.25;;;32.73;28.88
45621;BME280;31345;51.522;10.702;2023-07-08T12:35:22;99351.34;;;32.65;27.14
45621;BME280;31345;51.522;10.702;2023-07-08T12:37:58;99351.34;;;32.65;29.28
45621;BME280;31345;51.522;10.702;2023-07-08T12:40:28;99343.00;;;32.96;28.44
45621;BME280;31345;51.522;10.702;2023-07-08T12:42:57;99345.22;;;32.99;27.99
45621;BME280;31345;51.522;10.702;2023-07-08T12:45:27;99331.88;;;32.80;25.24
45621;BME280;31345;51.522;10.702;2023-07-08T12:47:57;99329.13;;;32.63;27.75
45621;BME280;31345;51.522;10.702;2023-07-08T12:50:29;99335.03;;;32.89;28.00
45621;BME280;31345;51.522;10.702;2023-07-08T12:52:58;99331.16;;;32.85;26.72
45621;BME280;31345;51.522;10.702;2023-07-08T12:55:35;99334.94;;;32.84;29.28
45621;BME280;31345;51.522;10.702;2023-07-08T12:58:04;99330.06;;;33.15;27.71
45621;BME280;31345;51.522;10.702;2023-07-08T13:00:37;99326.84;;;33.18;28.49
45621;BME280;31345;51.522;10.702;2023-07-08T13:03:15;99331.63;;;33.11;29.28
45621;BME280;31345;51.522;10.702;2023-07-08T13:05:43;99336.97;;;33.23;27.97
45621;BME280;31345;51.522;10.702;2023-07-08T13:08:20;99329.00;;;33.16;25.45
45621;BME280;31345;51.522;10.702;2023-07-08T13:10:56;99325.31;;;33.39;24.14
45621;BME280;31345;51.522;10.702;2023-07-08T13:13:31;99326.03;;;33.17;29.14
45621;BME280;31345;51.522;10.702;2023-07-08T13:16:00;99324.91;;;33.31;29.33
45621;BME280;31345;51.522;10.702;2023-07-08T13:18:32;99324.66;;;33.15;29.69
45621;BME280;31345;51.522;10.702;2023-07-08T13:21:00;99312.81;;;33.21;26.69
45621;BME280;31345;51.522;10.702;2023-07-08T13:23:36;99315.13;;;32.95;27.35